sensor_id;sensor_type;location;lat;lon;timestamp;P1;durP1;ratioP1;P2;durP2;ratioP2
7247;SDS011;3665;51.034;13.642;2023-01-23T00:01:19;21.63;;;12.10;;
7247;SDS011;3665;51.034;13.642;2023-01-23T00:06:20;153.30;;;19.57;;
7247;SDS011;3665;51.034;13.642;2023-01-23T00:11:10;110.40;;;17.63;;
7247;SDS011;3665;51.034;13.642;2023-01-23T00:15:56;69.40;;;14.33;;
7247;SDS011;3665;51.034;13.642;2023-01-23T00:20:43;37.67;;;13.70;;
7247;SDS011;3665;51.034;13.642;2023-01-23T00:25:31;329.27;;;30.83;;
7247;SDS011;3665;51.034;13.642;2023-01-23T00:30:21;207.27;;;22.40;;
7247;SDS011;3665;51.034;13.642;2023-01-23T00:35:09;78.93;;;15.17;;
7247;SDS011;3665;51.034;13.642;2023-01-23T00:39:57;46.50;;;13.67;;
7247;SDS011;3665;51.034;13.642;2023-01-23T00:44:44;149.83;;;19.77;;
7247;SDS011;3665;51.034;13.642;2023-01-23T00:49:33;96.10;;;16.80;;
7247;SDS011;3665;51.034;13.642;2023-01-23T00:54:22;172.73;;;19.67;;
7247;SDS011;3665;51.034;13.642;2023-01-23T00:59:08;263.73;;;26.40;;
7247;SDS011;3665;51.034;13.642;2023-01-23T01:03:58;82.33;;;15.27;;
7247;SDS011;3665;51.034;13.642;2023-01-23T01:08:46;25.97;;;11.20;;
7247;SDS011;3665;51.034;13.642;2023-01-23T01:13:33;20.90;;;11.77;;
7247;SDS011;3665;51.034;13.642;2023-01-23T01:18:21;140.43;;;18.97;;
7247;SDS011;3665;51.034;13.642;2023-01-23T01:23:08;71.07;;;14.03;;
7247;SDS011;3665;51.034;13.642;2023-01-23T01:28:05;113.73;;;16.83;;
7247;SDS011;3665;51.034;13.642;2023-01-23T01:32:52;107.53;;;17.20;;
7247;SDS011;3665;51.034;13.642;2023-01-23T01:37:40;125.70;;;17.37;;
7247;SDS011;3665;51.034;13.642;2023-01-23T01:42:28;42.93;;;12.90;;
7247;SDS011;3665;51.034;13.642;2023-01-23T01:47:19;45.13;;;13.77;;
7247;SDS011;3665;51.034;13.642;2023-01-23T01:52:05;26.47;;;13.10;;
7247;SDS011;3665;51.034;13.642;2023-01-23T01:56:53;77.40;;;16.20;;
7247;SDS011;3665;51.034;13.642;2023-01-23T02:01:41;20.97;;;12.77;;
7247;SDS011;3665;51.034;13.642;2023-01-23T02:06:32;87.27;;;14.13;;
7247;SDS011;3665;51.034;13.642;2023-01-23T02:11:16;105.40;;;16.43;;
7247;SDS011;3665;51.034;13.642;2023-01-23T02:16:07;118.97;;;17.73;;
7247;SDS011;3665;51.034;13.642;2023-01-23T02:21:10;108.00;;;16.83;;
7247;SDS011;3665;51.034;13.642;2023-01-23T02:25:59;22.30;;;11.83;;
7247;SDS011;3665;51.034;13.642;2023-01-23T02:30:47;73.20;;;15.00;;
7247;SDS011;3665;51.034;13.642;2023-01-23T02:40:52;58.23;;;14.10;;
7247;SDS011;3665;51.034;13.642;2023-01-23T02:46:06;67.33;;;14.80;;
7247;SDS011;3665;51.034;13.642;2023-01-23T02:51:19;71.33;;;14.00;;
7247;SDS011;3665;51.034;13.642;2023-01-23T02:56:37;18.87;;;11.70;;
7247;SDS011;3665;51.034;13.642;2023-01-23T03:01:45;43.63;;;13.07;;
7247;SDS011;3665;51.034;13.642;2023-01-23T03:06:46;161.93;;;17.90;;
7247;SDS011;3665;51.034;13.642;2023-01-23T03:22:46;241.83;;;25.27;;
7247;SDS011;3665;51.034;13.642;2023-01-23T03:27:50;209.67;;;22.47;;
7247;SDS011;3665;51.034;13.642;2023-01-23T03:33:10;89.50;;;15.17;;
7247;SDS011;3665;51.034;13.642;2023-01-23T03:43:24;71.67;;;14.83;;
7247;SDS011;3665;51.034;13.642;2023-01-23T03:48:37;43.67;;;14.03;;
7247;SDS011;3665;51.034;13.642;2023-01-23T03:53:24;43.63;;;13.23;;
7247;SDS011;3665;51.034;13.642;2023-01-23T03:58:13;116.43;;;19.03;;
7247;SDS011;3665;51.034;13.642;2023-01-23T04:03:00;25.23;;;13.80;;
7247;SDS011;3665;51.034;13.642;2023-01-23T04:08:05;26.10;;;11.70;;
7247;SDS011;3665;51.034;13.642;2023-01-23T04:12:55;66.77;;;13.80;;
7247;SDS011;3665;51.034;13.642;2023-01-23T04:17:56;22.13;;;11.73;;
7247;SDS011;3665;51.034;13.642;2023-01-23T04:22:44;24.90;;;12.47;;
7247;SDS011;3665;51.034;13.642;2023-01-23T04:27:33;43.50;;;14.60;;
7247;SDS011;3665;51.034;13.642;2023-01-23T04:32:22;34.93;;;14.17;;
7247;SDS011;3665;51.034;13.642;2023-01-23T04:37:09;77.53;;;16.00;;
7247;SDS011;3665;51.034;13.642;2023-01-23T04:42:01;24.00;;;13.00;;
7247;SDS011;3665;51.034;13.642;2023-01-23T04:47:24;71.43;;;14.50;;
7247;SDS011;3665;51.034;13.642;2023-01-23T04:52:22;27.07;;;13.80;;
7247;SDS011;3665;51.034;13.642;2023-01-23T04:57:10;54.70;;;14.07;;
7247;SDS011;3665;51.034;13.642;2023-01-23T05:02:33;26.63;;;12.33;;
7247;SDS011;3665;51.034;13.642;2023-01-23T05:07:32;45.97;;;14.33;;
7247;SDS011;3665;51.034;13.642;2023-01-23T05:12:28;32.63;;;14.07;;
7247;SDS011;3665;51.034;13.642;2023-01-23T05:17:27;30.73;;;13.27;;
7247;SDS011;3665;51.034;13.642;2023-01-23T05:22:14;27.23;;;13.80;;
7247;SDS011;3665;51.034;13.642;2023-01-23T05:27:18;32.20;;;12.83;;
7247;SDS011;3665;51.034;13.642;2023-01-23T05:32:38;27.67;;;13.53;;
7247;SDS011;3665;51.034;13.642;2023-01-23T05:37:58;20.00;;;11.93;;
7247;SDS011;3665;51.034;13.642;2023-01-23T05:42:44;19.50;;;13.30;;
7247;SDS011;3665;51.034;13.642;2023-01-23T05:47:49;24.00;;;14.03;;
7247;SDS011;3665;51.034;13.642;2023-01-23T05:52:36;21.37;;;13.30;;
7247;SDS011;3665;51.034;13.642;2023-01-23T05:57:26;38.23;;;14.43;;
7247;SDS011;3665;51.034;13.642;2023-01-23T06:02:30;23.47;;;13.53;;
7247;SDS011;3665;51.034;13.642;2023-01-23T06:07:49;35.77;;;14.77;;
7247;SDS011;3665;51.034;13.642;2023-01-23T06:12:38;31.57;;;13.13;;
7247;SDS011;3665;51.034;13.642;2023-01-23T06:17:33;43.33;;;14.97;;
7247;SDS011;3665;51.034;13.642;2023-01-23T06:22:28;154.70;;;22.87;;
7247;SDS011;3665;51.034;13.642;2023-01-23T06:27:32;188.33;;;24.77;;
7247;SDS011;3665;51.034;13.642;2023-01-23T06:32:23;260.10;;;26.67;;
7247;SDS011;3665;51.034;13.642;2023-01-23T06:37:09;51.40;;;15.97;;
7247;SDS011;3665;51.034;13.642;2023-01-23T06:42:05;40.13;;;15.50;;
7247;SDS011;3665;51.034;13.642;2023-01-23T06:47:04;80.83;;;16.50;;
7247;SDS011;3665;51.034;13.642;2023-01-23T06:51:55;262.07;;;26.53;;
7247;SDS011;3665;51.034;13.642;2023-01-23T06:56:52;436.47;;;36.13;;
7247;SDS011;3665;51.034;13.642;2023-01-23T07:02:00;317.60;;;29.87;;
7247;SDS011;3665;51.034;13.642;2023-01-23T07:12:55;211.20;;;26.07;;
7247;SDS011;3665;51.034;13.642;2023-01-23T07:17:50;110.40;;;20.30;;
7247;SDS011;3665;51.034;13.642;2023-01-23T07:22:54;155.97;;;23.23;;
7247;SDS011;3665;51.034;13.642;2023-01-23T07:27:56;102.23;;;22.20;;
7247;SDS011;3665;51.034;13.642;2023-01-23T07:32:52;31.33;;;17.37;;
7247;SDS011;3665;51.034;13.642;2023-01-23T07:37:42;151.87;;;22.03;;
7247;SDS011;3665;51.034;13.642;2023-01-23T07:42:38;40.67;;;15.57;;
7247;SDS011;3665;51.034;13.642;2023-01-23T07:47:34;74.23;;;18.77;;
7247;SDS011;3665;51.034;13.642;2023-01-23T07:52:21;26.93;;;15.37;;
7247;SDS011;3665;51.034;13.642;2023-01-23T07:57:09;131.03;;;22.10;;
7247;SDS011;3665;51.034;13.642;2023-01-23T08:01:56;71.10;;;19.00;;
7247;SDS011;3665;51.034;13.642;2023-01-23T08:12:05;28.03;;;16.97;;
7247;SDS011;3665;51.034;13.642;2023-01-23T08:16:52;33.30;;;17.73;;
7247;SDS011;3665;51.034;13.642;2023-01-23T08:21:43;61.63;;;19.87;;
7247;SDS011;3665;51.034;13.642;2023-01-23T08:26:31;43.73;;;18.90;;
7247;SDS011;3665;51.034;13.642;2023-01-23T08:31:18;108.47;;;23.10;;
7247;SDS011;3665;51.034;13.642;2023-01-23T08:36:05;49.87;;;18.27;;
7247;SDS011;3665;51.034;13.642;2023-01-23T08:40:53;33.73;;;18.37;;
7247;SDS011;3665;51.034;13.642;2023-01-23T08:45:46;115.77;;;23.17;;
7247;SDS011;3665;51.034;13.642;2023-01-23T08:50:49;72.93;;;18.37;;
7247;SDS011;3665;51.034;13.642;2023-01-23T08:55:34;118.80;;;22.73;;
7247;SDS011;3665;51.034;13.642;2023-01-23T09:00:20;142.77;;;23.07;;
7247;SDS011;3665;51.034;13.642;2023-01-23T09:05:15;150.87;;;26.00;;
7247;SDS011;3665;51.034;13.642;2023-01-23T09:09:58;68.63;;;21.60;;
7247;SDS011;3665;51.034;13.642;2023-01-23T09:14:44;97.13;;;20.17;;
7247;SDS011;3665;51.034;13.642;2023-01-23T09:19:35;37.10;;;17.90;;
7247;SDS011;3665;51.034;13.642;2023-01-23T09:24:23;52.23;;;18.97;;
7247;SDS011;3665;51.034;13.642;2023-01-23T09:29:09;29.03;;;18.10;;
7247;SDS011;3665;51.034;13.642;2023-01-23T09:34:02;38.10;;;18.40;;
7247;SDS011;3665;51.034;13.642;2023-01-23T09:38:46;51.80;;;18.63;;
7247;SDS011;3665;51.034;13.642;2023-01-23T09:43:36;30.13;;;18.37;;
7247;SDS011;3665;51.034;13.642;2023-01-23T09:48:41;60.23;;;18.67;;
7247;SDS011;3665;51.034;13.642;2023-01-23T09:53:29;39.07;;;18.43;;
7247;SDS011;3665;51.034;13.642;2023-01-23T09:58:29;43.67;;;18.07;;
7247;SDS011;3665;51.034;13.642;2023-01-23T10:03:19;27.60;;;16.20;;
7247;SDS011;3665;51.034;13.642;2023-01-23T10:08:06;33.57;;;17.40;;
7247;SDS011;3665;51.034;13.642;2023-01-23T10:13:14;29.80;;;16.13;;
7247;SDS011;3665;51.034;13.642;2023-01-23T10:18:15;30.50;;;16.30;;
7247;SDS011;3665;51.034;13.642;2023-01-23T10:23:23;38.10;;;16.10;;
7247;SDS011;3665;51.034;13.642;2023-01-23T10:28:25;29.83;;;17.27;;
7247;SDS011;3665;51.034;13.642;2023-01-23T10:33:33;51.67;;;18.70;;
7247;SDS011;3665;51.034;13.642;2023-01-23T10:38:32;43.70;;;18.63;;
7247;SDS011;3665;51.034;13.642;2023-01-23T10:43:33;115.30;;;21.63;;
7247;SDS011;3665;51.034;13.642;2023-01-23T10:53:44;41.97;;;17.63;;
7247;SDS011;3665;51.034;13.642;2023-01-23T10:58:46;73.63;;;19.33;;
7247;SDS011;3665;51.034;13.642;2023-01-23T11:03:34;32.77;;;17.80;;
7247;SDS011;3665;51.034;13.642;2023-01-23T11:08:24;28.53;;;17.33;;
7247;SDS011;3665;51.034;13.642;2023-01-23T11:13:08;26.83;;;17.03;;
7247;SDS011;3665;51.034;13.642;2023-01-23T11:18:22;30.60;;;17.40;;
7247;SDS011;3665;51.034;13.642;2023-01-23T11:23:14;25.93;;;16.13;;
7247;SDS011;3665;51.034;13.642;2023-01-23T11:33:13;22.57;;;15.27;;
7247;SDS011;3665;51.034;13.642;2023-01-23T11:38:14;25.73;;;16.03;;
7247;SDS011;3665;51.034;13.642;2023-01-23T11:43:17;21.97;;;14.53;;
7247;SDS011;3665;51.034;13.642;2023-01-23T11:48:11;22.87;;;15.07;;
7247;SDS011;3665;51.034;13.642;2023-01-23T11:53:10;22.13;;;15.07;;
7247;SDS011;3665;51.034;13.642;2023-01-23T11:58:26;24.30;;;15.83;;
7247;SDS011;3665;51.034;13.642;2023-01-23T12:03:45;25.20;;;15.93;;
7247;SDS011;3665;51.034;13.642;2023-01-23T12:08:54;24.53;;;15.20;;
7247;SDS011;3665;51.034;13.642;2023-01-23T12:14:02;26.37;;;15.57;;
7247;SDS011;3665;51.034;13.642;2023-01-23T12:19:02;25.23;;;15.73;;
7247;SDS011;3665;51.034;13.642;2023-01-23T12:24:05;22.57;;;14.23;;
7247;SDS011;3665;51.034;13.642;2023-01-23T12:29:18;24.67;;;15.07;;
7247;SDS011;3665;51.034;13.642;2023-01-23T12:34:31;22.57;;;15.07;;
7247;SDS011;3665;51.034;13.642;2023-01-23T12:39:34;23.60;;;14.40;;
7247;SDS011;3665;51.034;13.642;2023-01-23T12:44:42;26.17;;;15.57;;
7247;SDS011;3665;51.034;13.642;2023-01-23T12:49:45;23.43;;;15.63;;
7247;SDS011;3665;51.034;13.642;2023-01-23T12:54:47;29.10;;;16.93;;
7247;SDS011;3665;51.034;13.642;2023-01-23T12:59:53;26.80;;;16.07;;
7247;SDS011;3665;51.034;13.642;2023-01-23T13:05:02;30.07;;;17.97;;
7247;SDS011;3665;51.034;13.642;2023-01-23T13:10:04;34.20;;;18.80;;
7247;SDS011;3665;51.034;13.642;2023-01-23T13:21:28;30.97;;;18.73;;
7247;SDS011;3665;51.034;13.642;2023-01-23T13:26:29;86.37;;;23.07;;
7247;SDS011;3665;51.034;13.642;2023-01-23T13:31:24;38.70;;;20.27;;
7247;SDS011;3665;51.034;13.642;2023-01-23T15:04:26;312.90;;;41.53;;
7247;SDS011;3665;51.034;13.642;2023-01-23T15:09:26;341.97;;;39.73;;
7247;SDS011;3665;51.034;13.642;2023-01-23T15:14:30;358.00;;;41.27;;
7247;SDS011;3665;51.034;13.642;2023-01-23T15:24:57;568.30;;;71.07;;
7247;SDS011;3665;51.034;13.642;2023-01-23T15:35:37;502.73;;;222.97;;
7247;SDS011;3665;51.034;13.642;2023-01-23T15:40:41;632.90;;;265.47;;
7247;SDS011;3665;51.034;13.642;2023-01-23T15:45:25;355.93;;;153.57;;
7247;SDS011;3665;51.034;13.642;2023-01-23T15:50:12;297.17;;;52.53;;
7247;SDS011;3665;51.034;13.642;2023-01-23T15:55:03;475.70;;;65.07;;
7247;SDS011;3665;51.034;13.642;2023-01-23T15:59:58;604.90;;;134.87;;
7247;SDS011;3665;51.034;13.642;2023-01-23T16:05:13;581.27;;;60.93;;
7247;SDS011;3665;51.034;13.642;2023-01-23T16:09:58;183.37;;;30.90;;
7247;SDS011;3665;51.034;13.642;2023-01-23T16:14:46;499.67;;;51.37;;
7247;SDS011;3665;51.034;13.642;2023-01-23T16:19:35;292.53;;;40.53;;
7247;SDS011;3665;51.034;13.642;2023-01-23T16:24:40;369.97;;;39.97;;
7247;SDS011;3665;51.034;13.642;2023-01-23T16:29:45;390.00;;;43.10;;
7247;SDS011;3665;51.034;13.642;2023-01-23T16:34:31;515.17;;;51.13;;
7247;SDS011;3665;51.034;13.642;2023-01-23T16:39:19;270.67;;;36.57;;
7247;SDS011;3665;51.034;13.642;2023-01-23T16:44:15;445.13;;;46.37;;
7247;SDS011;3665;51.034;13.642;2023-01-23T16:49:28;491.47;;;52.33;;
7247;SDS011;3665;51.034;13.642;2023-01-23T16:54:46;519.10;;;52.40;;
7247;SDS011;3665;51.034;13.642;2023-01-23T16:59:34;630.07;;;59.50;;
7247;SDS011;3665;51.034;13.642;2023-01-23T17:04:45;277.33;;;35.37;;
7247;SDS011;3665;51.034;13.642;2023-01-23T17:09:31;475.02;;;109.03;;
7247;SDS011;3665;51.034;13.642;2023-01-23T17:14:17;306.57;;;103.57;;
7247;SDS011;3665;51.034;13.642;2023-01-23T17:19:11;400.40;;;51.10;;
7247;SDS011;3665;51.034;13.642;2023-01-23T17:24:14;299.90;;;41.60;;
7247;SDS011;3665;51.034;13.642;2023-01-23T17:34:27;354.03;;;40.63;;
7247;SDS011;3665;51.034;13.642;2023-01-23T17:39:40;312.10;;;41.00;;
7247;SDS011;3665;51.034;13.642;2023-01-23T17:44:25;358.90;;;45.90;;
7247;SDS011;3665;51.034;13.642;2023-01-23T17:49:20;383.50;;;40.83;;
7247;SDS011;3665;51.034;13.642;2023-01-23T17:54:18;257.93;;;34.27;;
7247;SDS011;3665;51.034;13.642;2023-01-23T17:59:09;428.63;;;46.57;;
7247;SDS011;3665;51.034;13.642;2023-01-23T18:03:54;561.87;;;60.60;;
7247;SDS011;3665;51.034;13.642;2023-01-23T18:08:58;169.33;;;32.70;;
7247;SDS011;3665;51.034;13.642;2023-01-23T18:13:52;282.30;;;39.17;;
7247;SDS011;3665;51.034;13.642;2023-01-23T18:19:11;497.03;;;49.27;;
7247;SDS011;3665;51.034;13.642;2023-01-23T18:24:10;400.87;;;47.93;;
7247;SDS011;3665;51.034;13.642;2023-01-23T18:29:22;264.03;;;37.03;;
7247;SDS011;3665;51.034;13.642;2023-01-23T18:34:39;271.97;;;37.43;;
7247;SDS011;3665;51.034;13.642;2023-01-23T18:45:17;393.03;;;44.27;;
7247;SDS011;3665;51.034;13.642;2023-01-23T18:50:53;251.60;;;33.13;;
7247;SDS011;3665;51.034;13.642;2023-01-23T19:03:24;145.97;;;48.50;;
7247;SDS011;3665;51.034;13.642;2023-01-23T19:09:00;306.73;;;40.90;;
7247;SDS011;3665;51.034;13.642;2023-01-23T19:19:24;169.47;;;54.00;;
7247;SDS011;3665;51.034;13.642;2023-01-23T19:24:48;260.53;;;71.30;;
7247;SDS011;3665;51.034;13.642;2023-01-23T19:29:47;163.33;;;57.87;;
7247;SDS011;3665;51.034;13.642;2023-01-23T19:34:50;180.13;;;52.00;;
7247;SDS011;3665;51.034;13.642;2023-01-23T19:40:27;392.77;;;57.90;;
7247;SDS011;3665;51.034;13.642;2023-01-23T19:51:55;263.90;;;40.60;;
7247;SDS011;3665;51.034;13.642;2023-01-23T19:57:01;263.10;;;50.30;;
7247;SDS011;3665;51.034;13.642;2023-01-23T20:02:07;267.97;;;66.27;;
7247;SDS011;3665;51.034;13.642;2023-01-23T20:13:18;154.63;;;37.63;;
7247;SDS011;3665;51.034;13.642;2023-01-23T20:18:03;114.07;;;30.50;;
7247;SDS011;3665;51.034;13.642;2023-01-23T20:23:14;64.50;;;25.93;;
7247;SDS011;3665;51.034;13.642;2023-01-23T20:28:25;476.73;;;51.77;;
7247;SDS011;3665;51.034;13.642;2023-01-23T20:38:35;312.27;;;47.23;;
7247;SDS011;3665;51.034;13.642;2023-01-23T20:43:25;389.03;;;52.27;;
7247;SDS011;3665;51.034;13.642;2023-01-23T20:54:04;89.53;;;25.63;;
7247;SDS011;3665;51.034;13.642;2023-01-23T20:59:07;340.90;;;42.47;;
7247;SDS011;3665;51.034;13.642;2023-01-23T21:04:12;426.67;;;46.93;;
7247;SDS011;3665;51.034;13.642;2023-01-23T21:14:50;220.70;;;34.17;;
7247;SDS011;3665;51.034;13.642;2023-01-23T21:19:43;173.97;;;32.17;;
7247;SDS011;3665;51.034;13.642;2023-01-23T21:24:34;472.43;;;148.03;;
7247;SDS011;3665;51.034;13.642;2023-01-23T21:29:47;403.63;;;60.03;;
7247;SDS011;3665;51.034;13.642;2023-01-23T21:34:51;278.07;;;40.00;;
7247;SDS011;3665;51.034;13.642;2023-01-23T21:39:39;508.90;;;55.80;;
7247;SDS011;3665;51.034;13.642;2023-01-23T21:44:43;451.83;;;53.90;;
7247;SDS011;3665;51.034;13.642;2023-01-23T21:49:45;310.83;;;41.00;;
7247;SDS011;3665;51.034;13.642;2023-01-23T21:54:36;316.20;;;40.90;;
7247;SDS011;3665;51.034;13.642;2023-01-23T21:59:39;336.67;;;39.37;;
7247;SDS011;3665;51.034;13.642;2023-01-23T22:05:02;405.73;;;46.70;;
7247;SDS011;3665;51.034;13.642;2023-01-23T22:10:06;424.47;;;47.97;;
7247;SDS011;3665;51.034;13.642;2023-01-23T22:14:58;401.50;;;111.03;;
7247;SDS011;3665;51.034;13.642;2023-01-23T22:25:00;564.10;;;117.10;;
7247;SDS011;3665;51.034;13.642;2023-01-23T22:29:46;442.30;;;86.17;;
7247;SDS011;3665;51.034;13.642;2023-01-23T22:34:49;333.27;;;46.47;;
7247;SDS011;3665;51.034;13.642;2023-01-23T22:39:41;348.97;;;44.73;;
7247;SDS011;3665;51.034;13.642;2023-01-23T22:44:35;348.37;;;40.77;;
7247;SDS011;3665;51.034;13.642;2023-01-23T22:49:37;133.20;;;27.53;;
7247;SDS011;3665;51.034;13.642;2023-01-23T22:54:34;120.53;;;30.03;;
7247;SDS011;3665;51.034;13.642;2023-01-23T22:59:26;600.77;;;59.40;;
7247;SDS011;3665;51.034;13.642;2023-01-23T23:04:27;365.70;;;45.07;;
7247;SDS011;3665;51.034;13.642;2023-01-23T23:09:14;164.47;;;30.50;;
7247;SDS011;3665;51.034;13.642;2023-01-23T23:14:01;340.47;;;39.17;;
7247;SDS011;3665;51.034;13.642;2023-01-23T23:18:53;331.97;;;41.00;;
7247;SDS011;3665;51.034;13.642;2023-01-23T23:23:38;363.97;;;44.47;;
7247;SDS011;3665;51.034;13.642;2023-01-23T23:28:26;664.63;;;65.57;;
7247;SDS011;3665;51.034;13.642;2023-01-23T23:33:13;263.03;;;37.20;;
7247;SDS011;3665;51.034;13.642;2023-01-23T23:38:03;132.43;;;29.07;;
7247;SDS011;3665;51.034;13.642;2023-01-23T23:43:06;174.20;;;30.63;;
7247;SDS011;3665;51.034;13.642;2023-01-23T23:47:55;504.27;;;55.57;;
7247;SDS011;3665;51.034;13.642;2023-01-23T23:52:44;398.70;;;46.60;;
7247;SDS011;3665;51.034;13.642;2023-01-23T23:57:33;533.57;;;55.80;;
